Photometre #72[NE_1.6] Lille AOT

File : 20200923_72.hum

23/09/2020,06:32:47,TEMP=15.8,BA=5.76,STAT.A=2.0,ExtBa=13.30
23/09/2020,06:36:52,TEMP=16.0,BA=5.76,STAT.A=2.0,ExtBa=13.20
23/09/2020,06:41:39,TEMP=16.2,BA=5.76,STAT.A=2.0,ExtBa=13.20
23/09/2020,06:47:21,TEMP=16.6,BA=5.76,STAT.A=2.0,ExtBa=13.20
23/09/2020,06:54:14,TEMP=17.0,BA=5.76,STAT.A=2.0,ExtBa=13.20
23/09/2020,07:02:46,TEMP=17.6,BA=5.76,STAT.A=2.0,ExtBa=13.20
23/09/2020,07:13:35,TEMP=18.0,BA=5.76,STAT.B=2.0,ExtBa=13.30
23/09/2020,07:23:53,TEMP=18.7,BA=5.72,STAT.A=2.0,ExtBa=12.70
23/09/2020,07:25:47,TEMP=18.7,BA=5.72,STAT.A=2.0,ExtBa=12.80
23/09/2020,07:31:15,TEMP=18.2,BA=5.76,STAT.A=2.0,ExtBa=13.00
23/09/2020,07:38:49,TEMP=18.1,BA=5.76,STAT.A=2.0,ExtBa=13.20
23/09/2020,07:47:35,TEMP=18.5,BA=5.72,STAT.C=2.0,ExtBa=13.30
23/09/2020,08:03:28,TEMP=19.7,BA=5.72,STAT.A=2.0,ExtBa=12.70
23/09/2020,08:10:06,TEMP=19.1,BA=5.72,STAT.A=2.0,ExtBa=13.00
23/09/2020,08:25:05,TEMP=18.9,BA=5.76,STAT.A=2.0,ExtBa=13.30
23/09/2020,08:40:11,TEMP=18.9,BA=5.72,STAT.F,ExtBa=13.40
23/09/2020,08:55:10,TEMP=19.1,BA=5.76,STAT.D=2.0,ExtBa=13.50
23/09/2020,09:09:49,TEMP=19.5,BA=5.76,STAT.h
23/09/2020,09:25:10,TEMP=19.0,BA=5.76,STAT.D=2.0,ExtBa=13.50
23/09/2020,09:40:12,TEMP=19.2,BA=5.72,STAT.F,ExtBa=13.50